sensor_id;sensor_type;location;lat;lon;timestamp;temperature;humidity
16384;DHT22;8301;51.440;6.610;2023-04-06T00:01:54;1.20;1.00
16384;DHT22;8301;51.440;6.610;2023-04-06T00:04:21;1.20;1.00
16384;DHT22;8301;51.440;6.610;2023-04-06T00:06:48;1.20;1.00
16384;DHT22;8301;51.440;6.610;2023-04-06T00:09:21;1.20;1.00
16384;DHT22;8301;51.440;6.610;2023-04-06T00:11:48;1.20;1.00
16384;DHT22;8301;51.440;6.610;2023-04-06T00:14:15;1.10;41.30
16384;DHT22;8301;51.440;6.610;2023-04-06T00:16:43;1.00;99.90
16384;DHT22;8301;51.440;6.610;2023-04-06T00:19:19;1.00;1.00
16384;DHT22;8301;51.440;6.610;2023-04-06T00:21:46;1.00;1.00
16384;DHT22;8301;51.440;6.610;2023-04-06T00:24:13;1.00;1.00
16384;DHT22;8301;51.440;6.610;2023-04-06T00:26:44;1.00;99.90
16384;DHT22;8301;51.440;6.610;2023-04-06T00:29:10;0.90;1.00
16384;DHT22;8301;51.440;6.610;2023-04-06T00:31:40;0.90;99.90
16384;DHT22;8301;51.440;6.610;2023-04-06T00:34:10;0.90;99.90
16384;DHT22;8301;51.440;6.610;2023-04-06T00:36:43;0.90;99.90
16384;DHT22;8301;51.440;6.610;2023-04-06T00:39:09;0.90;99.90
16384;DHT22;8301;51.440;6.610;2023-04-06T00:41:38;1.00;3.90
16384;DHT22;8301;51.440;6.610;2023-04-06T00:44:06;1.00;1.00
16384;DHT22;8301;51.440;6.610;2023-04-06T00:46:32;1.10;10.20
16384;DHT22;8301;51.440;6.610;2023-04-06T00:49:05;1.20;1.00
16384;DHT22;8301;51.440;6.610;2023-04-06T00:51:32;1.20;1.00
16384;DHT22;8301;51.440;6.610;2023-04-06T00:53:59;1.20;1.00
16384;DHT22;8301;51.440;6.610;2023-04-06T00:56:26;1.20;1.00
16384;DHT22;8301;51.440;6.610;2023-04-06T00:58:56;1.10;1.00
16384;DHT22;8301;51.440;6.610;2023-04-06T01:01:23;1.10;1.00
16384;DHT22;8301;51.440;6.610;2023-04-06T01:03:50;1.10;99.90
16384;DHT22;8301;51.440;6.610;2023-04-06T01:06:17;1.10;1.00
16384;DHT22;8301;51.440;6.610;2023-04-06T01:08:44;1.10;99.90
16384;DHT22;8301;51.440;6.610;2023-04-06T01:11:11;1.10;1.00
16384;DHT22;8301;51.440;6.610;2023-04-06T01:13:38;1.10;1.00
16384;DHT22;8301;51.440;6.610;2023-04-06T01:16:05;1.10;1.00
16384;DHT22;8301;51.440;6.610;2023-04-06T01:18:32;1.10;99.90
16384;DHT22;8301;51.440;6.610;2023-04-06T01:21:00;1.10;99.90
16384;DHT22;8301;51.440;6.610;2023-04-06T01:23:27;1.00;1.00
16384;DHT22;8301;51.440;6.610;2023-04-06T01:25:53;1.00;99.90
16384;DHT22;8301;51.440;6.610;2023-04-06T01:28:20;0.90;99.90
16384;DHT22;8301;51.440;6.610;2023-04-06T01:30:54;0.80;1.00
16384;DHT22;8301;51.440;6.610;2023-04-06T01:33:21;0.70;99.90
16384;DHT22;8301;51.440;6.610;2023-04-06T01:35:47;0.70;99.90
16384;DHT22;8301;51.440;6.610;2023-04-06T01:38:14;0.70;36.40
16384;DHT22;8301;51.440;6.610;2023-04-06T01:40:41;0.70;99.90
16384;DHT22;8301;51.440;6.610;2023-04-06T01:43:08;0.70;1.00
16384;DHT22;8301;51.440;6.610;2023-04-06T01:45:43;0.80;1.00
16384;DHT22;8301;51.440;6.610;2023-04-06T01:48:10;0.80;1.00
16384;DHT22;8301;51.440;6.610;2023-04-06T01:50:37;0.70;99.90
16384;DHT22;8301;51.440;6.610;2023-04-06T01:53:05;0.70;99.90
16384;DHT22;8301;51.440;6.610;2023-04-06T01:55:33;0.70;37.10
16384;DHT22;8301;51.440;6.610;2023-04-06T01:58:00;0.70;99.90
16384;DHT22;8301;51.440;6.610;2023-04-06T02:00:33;0.70;1.00
16384;DHT22;8301;51.440;6.610;2023-04-06T02:03:00;0.60;23.40
16384;DHT22;8301;51.440;6.610;2023-04-06T02:05:27;0.60;60.20
16384;DHT22;8301;51.440;6.610;2023-04-06T02:07:54;0.50;63.00
16384;DHT22;8301;51.440;6.610;2023-04-06T02:10:21;0.60;1.00
16384;DHT22;8301;51.440;6.610;2023-04-06T02:12:48;0.70;99.90
16384;DHT22;8301;51.440;6.610;2023-04-06T02:15:16;0.80;99.90
16384;DHT22;8301;51.440;6.610;2023-04-06T02:17:43;0.80;99.90
16384;DHT22;8301;51.440;6.610;2023-04-06T02:20:10;0.80;99.90
16384;DHT22;8301;51.440;6.610;2023-04-06T02:22:36;0.80;99.90
16384;DHT22;8301;51.440;6.610;2023-04-06T02:25:03;0.70;99.90
16384;DHT22;8301;51.440;6.610;2023-04-06T02:27:30;0.70;99.90
16384;DHT22;8301;51.440;6.610;2023-04-06T02:29:57;0.60;99.90
16384;DHT22;8301;51.440;6.610;2023-04-06T02:32:24;0.50;56.60
16384;DHT22;8301;51.440;6.610;2023-04-06T02:34:54;0.60;1.00
16384;DHT22;8301;51.440;6.610;2023-04-06T02:37:21;0.60;1.00
16384;DHT22;8301;51.440;6.610;2023-04-06T02:39:49;0.60;1.00
16384;DHT22;8301;51.440;6.610;2023-04-06T02:44:49;0.50;1.00
16384;DHT22;8301;51.440;6.610;2023-04-06T02:47:16;0.50;99.90
16384;DHT22;8301;51.440;6.610;2023-04-06T02:49:43;0.50;99.90
16384;DHT22;8301;51.440;6.610;2023-04-06T02:52:10;0.50;99.90
16384;DHT22;8301;51.440;6.610;2023-04-06T02:54:36;0.50;1.00
16384;DHT22;8301;51.440;6.610;2023-04-06T02:57:11;0.50;1.00
16384;DHT22;8301;51.440;6.610;2023-04-06T02:59:38;0.50;99.90
16384;DHT22;8301;51.440;6.610;2023-04-06T03:02:06;0.50;99.90
16384;DHT22;8301;51.440;6.610;2023-04-06T03:04:32;0.50;1.00
16384;DHT22;8301;51.440;6.610;2023-04-06T03:07:00;0.60;1.00
16384;DHT22;8301;51.440;6.610;2023-04-06T03:09:27;0.60;1.00
16384;DHT22;8301;51.440;6.610;2023-04-06T03:11:54;0.60;99.90
16384;DHT22;8301;51.440;6.610;2023-04-06T03:14:21;0.60;9.60
16384;DHT22;8301;51.440;6.610;2023-04-06T03:16:48;0.60;1.00
16384;DHT22;8301;51.440;6.610;2023-04-06T03:19:15;0.70;99.90
16384;DHT22;8301;51.440;6.610;2023-04-06T03:21:42;0.70;99.90
16384;DHT22;8301;51.440;6.610;2023-04-06T03:24:09;0.80;99.90
16384;DHT22;8301;51.440;6.610;2023-04-06T03:26:35;0.80;99.90
16384;DHT22;8301;51.440;6.610;2023-04-06T03:29:03;0.80;1.00
16384;DHT22;8301;51.440;6.610;2023-04-06T03:31:30;0.80;99.90
16384;DHT22;8301;51.440;6.610;2023-04-06T03:33:57;0.70;99.90
16384;DHT22;8301;51.440;6.610;2023-04-06T03:36:26;0.70;28.80
16384;DHT22;8301;51.440;6.610;2023-04-06T03:38:52;0.80;99.90
16384;DHT22;8301;51.440;6.610;2023-04-06T03:41:19;0.80;53.30
16384;DHT22;8301;51.440;6.610;2023-04-06T03:43:48;0.80;24.70
16384;DHT22;8301;51.440;6.610;2023-04-06T03:46:15;0.80;1.00
16384;DHT22;8301;51.440;6.610;2023-04-06T03:48:42;0.80;49.90
16384;DHT22;8301;51.440;6.610;2023-04-06T03:51:24;0.80;1.00
16384;DHT22;8301;51.440;6.610;2023-04-06T03:53:52;0.70;1.00
16384;DHT22;8301;51.440;6.610;2023-04-06T03:56:19;0.80;18.80
16384;DHT22;8301;51.440;6.610;2023-04-06T03:58:46;0.80;1.00
16384;DHT22;8301;51.440;6.610;2023-04-06T04:01:14;0.70;99.90
16384;DHT22;8301;51.440;6.610;2023-04-06T04:03:41;0.70;1.00
16384;DHT22;8301;51.440;6.610;2023-04-06T04:06:08;0.70;1.00
16384;DHT22;8301;51.440;6.610;2023-04-06T04:08:35;0.60;1.00
16384;DHT22;8301;51.440;6.610;2023-04-06T04:11:07;0.60;1.00
16384;DHT22;8301;51.440;6.610;2023-04-06T04:13:34;0.60;99.90
16384;DHT22;8301;51.440;6.610;2023-04-06T04:16:01;0.60;1.00
16384;DHT22;8301;51.440;6.610;2023-04-06T04:18:28;0.60;1.00
16384;DHT22;8301;51.440;6.610;2023-04-06T04:20:54;0.50;1.00
16384;DHT22;8301;51.440;6.610;2023-04-06T04:23:21;0.40;1.00
16384;DHT22;8301;51.440;6.610;2023-04-06T04:25:48;0.20;1.00
16384;DHT22;8301;51.440;6.610;2023-04-06T04:28:15;0.20;99.90
16384;DHT22;8301;51.440;6.610;2023-04-06T04:30:43;0.20;99.90
16384;DHT22;8301;51.440;6.610;2023-04-06T04:33:10;0.20;1.00
16384;DHT22;8301;51.440;6.610;2023-04-06T04:35:37;0.20;1.00
16384;DHT22;8301;51.440;6.610;2023-04-06T04:38:03;0.20;99.90
16384;DHT22;8301;51.440;6.610;2023-04-06T04:40:30;0.30;1.00
16384;DHT22;8301;51.440;6.610;2023-04-06T04:42:57;0.30;1.00
16384;DHT22;8301;51.440;6.610;2023-04-06T04:45:24;0.30;1.00
16384;DHT22;8301;51.440;6.610;2023-04-06T04:47:51;0.30;1.00
16384;DHT22;8301;51.440;6.610;2023-04-06T04:50:18;0.30;99.90
16384;DHT22;8301;51.440;6.610;2023-04-06T04:52:44;0.30;99.90
16384;DHT22;8301;51.440;6.610;2023-04-06T04:57:48;0.30;98.00
16384;DHT22;8301;51.440;6.610;2023-04-06T05:00:15;0.30;1.00
16384;DHT22;8301;51.440;6.610;2023-04-06T05:02:42;0.40;99.90
16384;DHT22;8301;51.440;6.610;2023-04-06T05:05:09;0.50;99.90
16384;DHT22;8301;51.440;6.610;2023-04-06T05:07:36;0.60;1.00
16384;DHT22;8301;51.440;6.610;2023-04-06T05:10:03;0.70;1.00
16384;DHT22;8301;51.440;6.610;2023-04-06T05:12:30;0.90;99.90
16384;DHT22;8301;51.440;6.610;2023-04-06T05:14:57;1.00;1.00
16384;DHT22;8301;51.440;6.610;2023-04-06T05:17:29;1.10;1.00
16384;DHT22;8301;51.440;6.610;2023-04-06T05:19:56;1.20;1.00
16384;DHT22;8301;51.440;6.610;2023-04-06T05:22:25;1.20;1.00
16384;DHT22;8301;51.440;6.610;2023-04-06T05:24:52;1.30;99.90
16384;DHT22;8301;51.440;6.610;2023-04-06T05:27:18;1.40;40.00
16384;DHT22;8301;51.440;6.610;2023-04-06T05:29:47;1.40;1.00
16384;DHT22;8301;51.440;6.610;2023-04-06T05:32:14;1.40;1.40
16384;DHT22;8301;51.440;6.610;2023-04-06T05:34:41;1.50;1.00
16384;DHT22;8301;51.440;6.610;2023-04-06T05:37:15;1.60;1.00
16384;DHT22;8301;51.440;6.610;2023-04-06T05:39:48;1.70;1.00
16384;DHT22;8301;51.440;6.610;2023-04-06T05:42:22;1.70;1.00
16384;DHT22;8301;51.440;6.610;2023-04-06T05:44:57;1.80;1.00
16384;DHT22;8301;51.440;6.610;2023-04-06T05:50:09;2.00;99.90
16384;DHT22;8301;51.440;6.610;2023-04-06T05:52:48;2.00;99.90
16384;DHT22;8301;51.440;6.610;2023-04-06T05:55:15;2.10;99.90
16384;DHT22;8301;51.440;6.610;2023-04-06T05:57:41;2.20;99.90
16384;DHT22;8301;51.440;6.610;2023-04-06T06:00:11;2.30;99.90
16384;DHT22;8301;51.440;6.610;2023-04-06T06:02:38;2.30;1.00
16384;DHT22;8301;51.440;6.610;2023-04-06T06:05:05;2.50;1.00
16384;DHT22;8301;51.440;6.610;2023-04-06T06:10:35;2.80;1.00
16384;DHT22;8301;51.440;6.610;2023-04-06T06:13:02;3.00;1.00
16384;DHT22;8301;51.440;6.610;2023-04-06T06:15:29;3.20;1.00
16384;DHT22;8301;51.440;6.610;2023-04-06T06:17:56;3.30;1.00
16384;DHT22;8301;51.440;6.610;2023-04-06T06:20:22;3.50;99.90
16384;DHT22;8301;51.440;6.610;2023-04-06T06:22:49;3.70;99.90
16384;DHT22;8301;51.440;6.610;2023-04-06T06:25:23;3.80;26.60
16384;DHT22;8301;51.440;6.610;2023-04-06T06:27:52;4.00;1.00
16384;DHT22;8301;51.440;6.610;2023-04-06T06:30:24;4.30;1.00
16384;DHT22;8301;51.440;6.610;2023-04-06T06:32:52;4.60;1.00
16384;DHT22;8301;51.440;6.610;2023-04-06T06:35:20;4.80;1.00
16384;DHT22;8301;51.440;6.610;2023-04-06T06:37:50;5.10;1.00
16384;DHT22;8301;51.440;6.610;2023-04-06T06:40:17;5.40;99.90
16384;DHT22;8301;51.440;6.610;2023-04-06T06:42:44;5.70;99.90
16384;DHT22;8301;51.440;6.610;2023-04-06T06:45:11;5.80;99.90
16384;DHT22;8301;51.440;6.610;2023-04-06T06:47:37;6.00;99.90
16384;DHT22;8301;51.440;6.610;2023-04-06T06:50:05;6.30;99.90
16384;DHT22;8301;51.440;6.610;2023-04-06T06:52:32;6.60;99.90
16384;DHT22;8301;51.440;6.610;2023-04-06T06:54:59;6.60;99.90
16384;DHT22;8301;51.440;6.610;2023-04-06T06:57:26;6.70;99.90
16384;DHT22;8301;51.440;6.610;2023-04-06T06:59:54;6.80;28.20
16384;DHT22;8301;51.440;6.610;2023-04-06T07:02:20;6.60;31.00
16384;DHT22;8301;51.440;6.610;2023-04-06T07:09:45;7.40;1.00
16384;DHT22;8301;51.440;6.610;2023-04-06T07:12:12;7.50;1.00
16384;DHT22;8301;51.440;6.610;2023-04-06T07:14:39;7.60;1.00
16384;DHT22;8301;51.440;6.610;2023-04-06T07:17:12;7.40;1.00
16384;DHT22;8301;51.440;6.610;2023-04-06T07:19:39;7.30;1.00
16384;DHT22;8301;51.440;6.610;2023-04-06T07:22:06;7.30;1.00
16384;DHT22;8301;51.440;6.610;2023-04-06T07:24:34;7.20;1.00
16384;DHT22;8301;51.440;6.610;2023-04-06T07:27:01;7.20;1.00
16384;DHT22;8301;51.440;6.610;2023-04-06T07:29:29;7.50;1.00
16384;DHT22;8301;51.440;6.610;2023-04-06T07:31:57;7.80;1.00
16384;DHT22;8301;51.440;6.610;2023-04-06T07:34:26;8.00;1.00
16384;DHT22;8301;51.440;6.610;2023-04-06T07:36:56;8.00;1.00
16384;DHT22;8301;51.440;6.610;2023-04-06T07:39:23;8.10;1.00
16384;DHT22;8301;51.440;6.610;2023-04-06T07:41:52;8.50;1.00
16384;DHT22;8301;51.440;6.610;2023-04-06T07:44:19;8.90;1.00
16384;DHT22;8301;51.440;6.610;2023-04-06T07:46:46;9.10;1.00
16384;DHT22;8301;51.440;6.610;2023-04-06T07:49:14;9.10;1.00
16384;DHT22;8301;51.440;6.610;2023-04-06T07:51:43;9.00;1.00
16384;DHT22;8301;51.440;6.610;2023-04-06T07:54:11;8.80;1.00
16384;DHT22;8301;51.440;6.610;2023-04-06T07:56:38;8.60;1.00
16384;DHT22;8301;51.440;6.610;2023-04-06T07:59:05;8.60;1.00
16384;DHT22;8301;51.440;6.610;2023-04-06T08:01:32;8.50;1.00
16384;DHT22;8301;51.440;6.610;2023-04-06T08:04:03;8.50;1.00
16384;DHT22;8301;51.440;6.610;2023-04-06T08:06:30;8.50;1.00
16384;DHT22;8301;51.440;6.610;2023-04-06T08:08:59;8.60;1.00
16384;DHT22;8301;51.440;6.610;2023-04-06T08:11:26;8.80;1.00
16384;DHT22;8301;51.440;6.610;2023-04-06T08:14:04;8.80;1.00
16384;DHT22;8301;51.440;6.610;2023-04-06T08:16:31;8.90;1.00
16384;DHT22;8301;51.440;6.610;2023-04-06T08:19:03;8.90;1.00
16384;DHT22;8301;51.440;6.610;2023-04-06T08:21:30;9.00;1.00
16384;DHT22;8301;51.440;6.610;2023-04-06T08:24:02;9.10;1.00
16384;DHT22;8301;51.440;6.610;2023-04-06T08:26:29;9.10;1.00
16384;DHT22;8301;51.440;6.610;2023-04-06T08:28:59;9.10;1.00
16384;DHT22;8301;51.440;6.610;2023-04-06T08:31:26;9.20;1.00
16384;DHT22;8301;51.440;6.610;2023-04-06T08:33:53;9.20;1.00
16384;DHT22;8301;51.440;6.610;2023-04-06T08:36:20;9.60;1.00
16384;DHT22;8301;51.440;6.610;2023-04-06T08:38:54;9.70;1.00
16384;DHT22;8301;51.440;6.610;2023-04-06T08:43:48;9.90;1.00
16384;DHT22;8301;51.440;6.610;2023-04-06T08:46:17;9.90;1.00
16384;DHT22;8301;51.440;6.610;2023-04-06T08:48:44;9.90;1.00
16384;DHT22;8301;51.440;6.610;2023-04-06T08:51:11;10.00;1.00
16384;DHT22;8301;51.440;6.610;2023-04-06T08:53:45;10.10;1.00
16384;DHT22;8301;51.440;6.610;2023-04-06T08:56:12;10.30;1.00
16384;DHT22;8301;51.440;6.610;2023-04-06T08:58:41;10.50;1.00
16384;DHT22;8301;51.440;6.610;2023-04-06T09:01:11;10.50;1.00
16384;DHT22;8301;51.440;6.610;2023-04-06T09:03:41;10.60;1.00
16384;DHT22;8301;51.440;6.610;2023-04-06T09:06:09;10.90;1.00
16384;DHT22;8301;51.440;6.610;2023-04-06T09:08:38;11.00;1.00
16384;DHT22;8301;51.440;6.610;2023-04-06T09:11:05;10.80;1.00
16384;DHT22;8301;51.440;6.610;2023-04-06T09:13:44;11.00;1.00
16384;DHT22;8301;51.440;6.610;2023-04-06T09:16:04;11.10;1.00
16384;DHT22;8301;51.440;6.610;2023-04-06T09:18:33;11.00;1.00
16384;DHT22;8301;51.440;6.610;2023-04-06T09:21:01;10.90;1.00
16384;DHT22;8301;51.440;6.610;2023-04-06T09:23:32;11.10;1.00
16384;DHT22;8301;51.440;6.610;2023-04-06T09:26:10;11.10;1.00
16384;DHT22;8301;51.440;6.610;2023-04-06T09:31:15;11.20;1.00
16384;DHT22;8301;51.440;6.610;2023-04-06T09:33:44;11.30;1.00
16384;DHT22;8301;51.440;6.610;2023-04-06T09:36:19;11.50;1.00
16384;DHT22;8301;51.440;6.610;2023-04-06T09:38:52;11.60;1.00
16384;DHT22;8301;51.440;6.610;2023-04-06T09:41:38;11.60;1.00
16384;DHT22;8301;51.440;6.610;2023-04-06T09:44:11;11.70;1.00
16384;DHT22;8301;51.440;6.610;2023-04-06T09:46:46;11.60;1.00
16384;DHT22;8301;51.440;6.610;2023-04-06T09:49:13;11.60;1.00
16384;DHT22;8301;51.440;6.610;2023-04-06T09:51:41;11.80;1.00
16384;DHT22;8301;51.440;6.610;2023-04-06T09:54:18;11.90;1.00
16384;DHT22;8301;51.440;6.610;2023-04-06T09:56:47;11.60;1.00
16384;DHT22;8301;51.440;6.610;2023-04-06T09:59:21;11.90;1.00
16384;DHT22;8301;51.440;6.610;2023-04-06T10:01:49;11.90;1.00
16384;DHT22;8301;51.440;6.610;2023-04-06T10:04:30;12.20;1.00
16384;DHT22;8301;51.440;6.610;2023-04-06T10:06:55;12.40;1.00
16384;DHT22;8301;51.440;6.610;2023-04-06T10:09:23;12.30;1.00
16384;DHT22;8301;51.440;6.610;2023-04-06T10:11:51;12.20;1.00
16384;DHT22;8301;51.440;6.610;2023-04-06T10:14:20;12.30;1.00
16384;DHT22;8301;51.440;6.610;2023-04-06T10:16:48;11.90;1.00
16384;DHT22;8301;51.440;6.610;2023-04-06T10:19:21;12.10;1.00
16384;DHT22;8301;51.440;6.610;2023-04-06T10:22:01;12.50;1.00
16384;DHT22;8301;51.440;6.610;2023-04-06T10:24:29;12.40;1.00
16384;DHT22;8301;51.440;6.610;2023-04-06T10:27:02;12.20;1.00
16384;DHT22;8301;51.440;6.610;2023-04-06T10:29:46;12.30;1.00
16384;DHT22;8301;51.440;6.610;2023-04-06T10:32:14;12.30;1.00
16384;DHT22;8301;51.440;6.610;2023-04-06T10:34:42;12.30;1.00
16384;DHT22;8301;51.440;6.610;2023-04-06T10:37:13;12.30;1.00
16384;DHT22;8301;51.440;6.610;2023-04-06T10:39:53;12.30;1.00
16384;DHT22;8301;51.440;6.610;2023-04-06T10:42:36;12.20;1.00
16384;DHT22;8301;51.440;6.610;2023-04-06T10:44:58;12.60;1.00
16384;DHT22;8301;51.440;6.610;2023-04-06T10:47:27;12.90;1.00
16384;DHT22;8301;51.440;6.610;2023-04-06T10:49:54;12.70;1.00
16384;DHT22;8301;51.440;6.610;2023-04-06T10:52:21;12.70;1.00
16384;DHT22;8301;51.440;6.610;2023-04-06T10:54:47;12.60;1.00
16384;DHT22;8301;51.440;6.610;2023-04-06T10:57:15;12.90;1.00
16384;DHT22;8301;51.440;6.610;2023-04-06T10:59:42;12.80;1.00
16384;DHT22;8301;51.440;6.610;2023-04-06T11:02:18;12.80;1.00
16384;DHT22;8301;51.440;6.610;2023-04-06T11:04:40;12.70;1.00
16384;DHT22;8301;51.440;6.610;2023-04-06T11:07:08;12.90;1.00
16384;DHT22;8301;51.440;6.610;2023-04-06T11:09:35;12.60;1.00
16384;DHT22;8301;51.440;6.610;2023-04-06T11:12:02;12.20;1.00
16384;DHT22;8301;51.440;6.610;2023-04-06T11:14:29;12.40;1.00
16384;DHT22;8301;51.440;6.610;2023-04-06T11:17:02;12.20;1.00
16384;DHT22;8301;51.440;6.610;2023-04-06T11:19:39;12.20;1.00
16384;DHT22;8301;51.440;6.610;2023-04-06T11:22:07;12.10;1.00
16384;DHT22;8301;51.440;6.610;2023-04-06T11:24:34;11.90;1.00
16384;DHT22;8301;51.440;6.610;2023-04-06T11:27:01;12.20;1.00
16384;DHT22;8301;51.440;6.610;2023-04-06T11:29:33;12.30;1.00
16384;DHT22;8301;51.440;6.610;2023-04-06T11:32:03;12.10;1.00
16384;DHT22;8301;51.440;6.610;2023-04-06T11:34:32;12.00;1.00
16384;DHT22;8301;51.440;6.610;2023-04-06T11:37:01;12.10;1.00
16384;DHT22;8301;51.440;6.610;2023-04-06T11:39:30;12.00;1.00
16384;DHT22;8301;51.440;6.610;2023-04-06T11:42:02;12.30;1.00
16384;DHT22;8301;51.440;6.610;2023-04-06T11:44:42;12.50;1.00
16384;DHT22;8301;51.440;6.610;2023-04-06T11:47:10;12.40;1.00
16384;DHT22;8301;51.440;6.610;2023-04-06T11:49:44;12.70;1.00
16384;DHT22;8301;51.440;6.610;2023-04-06T11:52:18;12.70;1.00
16384;DHT22;8301;51.440;6.610;2023-04-06T11:54:45;12.80;1.00
16384;DHT22;8301;51.440;6.610;2023-04-06T11:57:12;12.40;1.00
16384;DHT22;8301;51.440;6.610;2023-04-06T11:59:45;12.20;1.00
16384;DHT22;8301;51.440;6.610;2023-04-06T12:02:12;12.00;1.00
16384;DHT22;8301;51.440;6.610;2023-04-06T12:04:39;11.90;1.00
16384;DHT22;8301;51.440;6.610;2023-04-06T12:07:06;12.30;1.00
16384;DHT22;8301;51.440;6.610;2023-04-06T12:09:35;12.60;1.00
16384;DHT22;8301;51.440;6.610;2023-04-06T12:12:03;12.60;1.00
16384;DHT22;8301;51.440;6.610;2023-04-06T12:14:30;12.60;1.00
16384;DHT22;8301;51.440;6.610;2023-04-06T12:19:27;12.80;1.00
16384;DHT22;8301;51.440;6.610;2023-04-06T12:21:54;12.90;1.00
16384;DHT22;8301;51.440;6.610;2023-04-06T12:24:22;12.90;1.00
16384;DHT22;8301;51.440;6.610;2023-04-06T12:26:49;12.70;1.00
16384;DHT22;8301;51.440;6.610;2023-04-06T12:29:16;12.80;1.00
16384;DHT22;8301;51.440;6.610;2023-04-06T12:31:44;12.50;1.00
16384;DHT22;8301;51.440;6.610;2023-04-06T12:34:11;12.30;1.00
16384;DHT22;8301;51.440;6.610;2023-04-06T12:36:38;12.30;1.00
16384;DHT22;8301;51.440;6.610;2023-04-06T12:39:05;12.20;1.00
16384;DHT22;8301;51.440;6.610;2023-04-06T12:41:33;12.20;1.00
16384;DHT22;8301;51.440;6.610;2023-04-06T12:44:13;12.10;1.00
16384;DHT22;8301;51.440;6.610;2023-04-06T12:46:42;12.10;1.00
16384;DHT22;8301;51.440;6.610;2023-04-06T12:49:10;12.10;1.00
16384;DHT22;8301;51.440;6.610;2023-04-06T12:51:38;11.90;1.00
16384;DHT22;8301;51.440;6.610;2023-04-06T12:54:04;12.00;1.00
16384;DHT22;8301;51.440;6.610;2023-04-06T12:56:33;12.00;1.00
16384;DHT22;8301;51.440;6.610;2023-04-06T12:59:01;12.00;1.00
16384;DHT22;8301;51.440;6.610;2023-04-06T13:01:28;11.90;1.00
16384;DHT22;8301;51.440;6.610;2023-04-06T13:03:55;11.70;1.00
16384;DHT22;8301;51.440;6.610;2023-04-06T13:06:37;11.90;1.00
16384;DHT22;8301;51.440;6.610;2023-04-06T13:09:11;11.90;1.00
16384;DHT22;8301;51.440;6.610;2023-04-06T13:11:38;11.80;1.00
16384;DHT22;8301;51.440;6.610;2023-04-06T13:14:06;11.70;1.00
16384;DHT22;8301;51.440;6.610;2023-04-06T13:16:33;11.40;1.00
16384;DHT22;8301;51.440;6.610;2023-04-06T13:19:00;11.60;1.00
16384;DHT22;8301;51.440;6.610;2023-04-06T13:21:28;11.20;13.30
16384;DHT22;8301;51.440;6.610;2023-04-06T13:23:57;11.00;41.20
16384;DHT22;8301;51.440;6.610;2023-04-06T13:26:30;10.80;99.90
16384;DHT22;8301;51.440;6.610;2023-04-06T13:28:56;10.80;99.90
16384;DHT22;8301;51.440;6.610;2023-04-06T13:31:28;10.70;99.90
16384;DHT22;8301;51.440;6.610;2023-04-06T13:33:57;10.50;1.00
16384;DHT22;8301;51.440;6.610;2023-04-06T13:36:24;10.30;99.90
16384;DHT22;8301;51.440;6.610;2023-04-06T13:39:02;10.10;1.00
16384;DHT22;8301;51.440;6.610;2023-04-06T13:41:29;10.20;1.00
16384;DHT22;8301;51.440;6.610;2023-04-06T13:43:56;10.30;1.00
16384;DHT22;8301;51.440;6.610;2023-04-06T13:49:05;10.30;1.00
16384;DHT22;8301;51.440;6.610;2023-04-06T13:51:33;10.20;1.00
16384;DHT22;8301;51.440;6.610;2023-04-06T13:54:03;10.10;58.30
16384;DHT22;8301;51.440;6.610;2023-04-06T13:56:30;10.20;1.00
16384;DHT22;8301;51.440;6.610;2023-04-06T13:58:57;10.30;1.00
16384;DHT22;8301;51.440;6.610;2023-04-06T14:01:24;10.20;1.00
16384;DHT22;8301;51.440;6.610;2023-04-06T14:03:52;10.10;99.90
16384;DHT22;8301;51.440;6.610;2023-04-06T14:06:19;10.30;1.00
16384;DHT22;8301;51.440;6.610;2023-04-06T14:08:47;10.40;1.00
16384;DHT22;8301;51.440;6.610;2023-04-06T14:11:16;10.40;1.00
16384;DHT22;8301;51.440;6.610;2023-04-06T14:13:43;10.50;99.90
16384;DHT22;8301;51.440;6.610;2023-04-06T14:16:20;10.50;99.90
16384;DHT22;8301;51.440;6.610;2023-04-06T14:18:49;10.50;92.60
16384;DHT22;8301;51.440;6.610;2023-04-06T14:21:19;10.50;1.00
16384;DHT22;8301;51.440;6.610;2023-04-06T14:23:45;10.60;1.00
16384;DHT22;8301;51.440;6.610;2023-04-06T14:26:12;10.50;1.00
16384;DHT22;8301;51.440;6.610;2023-04-06T14:28:39;10.50;99.90
16384;DHT22;8301;51.440;6.610;2023-04-06T14:31:10;10.40;99.90
16384;DHT22;8301;51.440;6.610;2023-04-06T14:33:39;10.20;99.90
16384;DHT22;8301;51.440;6.610;2023-04-06T14:36:06;10.20;99.90
16384;DHT22;8301;51.440;6.610;2023-04-06T14:38:33;10.20;99.90
16384;DHT22;8301;51.440;6.610;2023-04-06T14:41:15;10.10;1.00
16384;DHT22;8301;51.440;6.610;2023-04-06T14:43:43;10.00;1.00
16384;DHT22;8301;51.440;6.610;2023-04-06T14:46:10;10.00;1.00
16384;DHT22;8301;51.440;6.610;2023-04-06T14:48:37;9.90;99.90
16384;DHT22;8301;51.440;6.610;2023-04-06T14:51:04;9.80;1.00
16384;DHT22;8301;51.440;6.610;2023-04-06T14:53:30;9.80;1.00
16384;DHT22;8301;51.440;6.610;2023-04-06T14:56:03;9.70;1.00
16384;DHT22;8301;51.440;6.610;2023-04-06T14:58:30;9.60;99.90
16384;DHT22;8301;51.440;6.610;2023-04-06T15:01:10;9.70;1.00
16384;DHT22;8301;51.440;6.610;2023-04-06T15:03:49;9.60;99.90
16384;DHT22;8301;51.440;6.610;2023-04-06T15:06:17;9.50;1.00
16384;DHT22;8301;51.440;6.610;2023-04-06T15:11:21;9.40;1.00
16384;DHT22;8301;51.440;6.610;2023-04-06T15:13:48;9.30;99.90
16384;DHT22;8301;51.440;6.610;2023-04-06T15:16:15;9.40;99.90
16384;DHT22;8301;51.440;6.610;2023-04-06T15:18:42;9.40;1.00
16384;DHT22;8301;51.440;6.610;2023-04-06T15:21:09;9.30;99.90
16384;DHT22;8301;51.440;6.610;2023-04-06T15:23:38;9.20;99.90
16384;DHT22;8301;51.440;6.610;2023-04-06T15:26:04;9.20;1.00
16384;DHT22;8301;51.440;6.610;2023-04-06T15:28:31;9.10;1.00
16384;DHT22;8301;51.440;6.610;2023-04-06T15:31:19;9.10;1.00
16384;DHT22;8301;51.440;6.610;2023-04-06T15:33:32;9.10;1.00
16384;DHT22;8301;51.440;6.610;2023-04-06T15:35:59;9.00;99.90
16384;DHT22;8301;51.440;6.610;2023-04-06T15:38:33;9.00;1.00
16384;DHT22;8301;51.440;6.610;2023-04-06T15:41:17;9.00;1.00
16384;DHT22;8301;51.440;6.610;2023-04-06T15:43:40;8.90;1.00
16384;DHT22;8301;51.440;6.610;2023-04-06T15:46:15;8.90;46.40
16384;DHT22;8301;51.440;6.610;2023-04-06T15:48:42;8.90;99.90
16384;DHT22;8301;51.440;6.610;2023-04-06T15:51:10;8.90;99.90
16384;DHT22;8301;51.440;6.610;2023-04-06T15:53:37;8.80;1.00
16384;DHT22;8301;51.440;6.610;2023-04-06T15:56:04;8.70;1.00
16384;DHT22;8301;51.440;6.610;2023-04-06T15:58:36;8.60;1.00
16384;DHT22;8301;51.440;6.610;2023-04-06T16:01:12;8.60;1.00
16384;DHT22;8301;51.440;6.610;2023-04-06T16:03:40;8.60;99.90
16384;DHT22;8301;51.440;6.610;2023-04-06T16:06:23;8.60;99.90
16384;DHT22;8301;51.440;6.610;2023-04-06T16:08:57;8.60;99.90
16384;DHT22;8301;51.440;6.610;2023-04-06T16:11:33;8.50;99.90
16384;DHT22;8301;51.440;6.610;2023-04-06T16:14:01;8.50;99.90
16384;DHT22;8301;51.440;6.610;2023-04-06T16:16:30;8.40;99.90
16384;DHT22;8301;51.440;6.610;2023-04-06T16:18:57;8.40;99.90
16384;DHT22;8301;51.440;6.610;2023-04-06T16:21:25;8.40;99.90
16384;DHT22;8301;51.440;6.610;2023-04-06T16:23:53;8.30;99.90
16384;DHT22;8301;51.440;6.610;2023-04-06T16:26:20;8.30;99.90
16384;DHT22;8301;51.440;6.610;2023-04-06T16:28:54;8.20;99.90
16384;DHT22;8301;51.440;6.610;2023-04-06T16:31:44;8.20;99.90
16384;DHT22;8301;51.440;6.610;2023-04-06T16:34:18;8.10;99.90
16384;DHT22;8301;51.440;6.610;2023-04-06T16:36:56;8.10;99.90
16384;DHT22;8301;51.440;6.610;2023-04-06T16:39:23;8.10;99.90
16384;DHT22;8301;51.440;6.610;2023-04-06T16:41:51;8.10;99.90
16384;DHT22;8301;51.440;6.610;2023-04-06T16:44:35;8.10;99.90
16384;DHT22;8301;51.440;6.610;2023-04-06T16:47:17;8.00;99.90